createdAt,value
2023-02-15T00:02:56.025Z,82.31
2023-02-15T00:06:01.984Z,83.36
2023-02-15T00:09:07.265Z,83.23
2023-02-15T00:12:12.197Z,83.37
2023-02-15T00:15:15.513Z,84.08
2023-02-15T00:18:20.028Z,84.77
2023-02-15T00:21:27.339Z,85.36
2023-02-15T00:24:30.489Z,85.96
2023-02-15T00:27:39.566Z,85.30
2023-02-15T00:30:43.081Z,83.65
2023-02-15T00:33:46.416Z,83.73
2023-02-15T00:36:49.873Z,83.93
2023-02-15T00:39:53.240Z,83.22
2023-02-15T00:42:56.571Z,82.68
2023-02-15T00:46:00.857Z,82.41
2023-02-15T00:49:05.935Z,81.73
2023-02-15T00:52:09.203Z,81.47
2023-02-15T00:55:14.551Z,81.19
2023-02-15T00:58:18.320Z,81.66
2023-02-15T01:01:22.863Z,81.71
2023-02-15T01:04:26.494Z,79.76
2023-02-15T01:07:30.460Z,78.15
2023-02-15T01:10:36.022Z,79.82
2023-02-15T01:13:40.761Z,82.18
2023-02-15T01:16:46.721Z,82.93
2023-02-15T01:19:50.588Z,81.98
2023-02-15T01:22:54.545Z,82.99
2023-02-15T01:26:03.764Z,82.89
2023-02-15T01:29:09.422Z,82.00
2023-02-15T01:32:13.754Z,82.56
2023-02-15T01:35:19.404Z,82.66
2023-02-15T01:38:23.309Z,81.80
2023-02-15T01:41:28.682Z,82.54
2023-02-15T01:45:00.349Z,82.41
2023-02-15T01:48:06.609Z,82.13
2023-02-15T01:51:10.502Z,84.94
2023-02-15T01:54:37.393Z,84.22
2023-02-15T01:57:43.479Z,83.02
2023-02-15T02:00:47.814Z,83.10
2023-02-15T02:04:18.670Z,83.75
2023-02-15T02:07:25.427Z,84.12
2023-02-15T02:10:29.897Z,84.29
2023-02-15T02:13:34.799Z,84.50
2023-02-15T02:17:07.668Z,84.70
2023-02-15T02:20:21.931Z,84.86
2023-02-15T02:23:39.941Z,85.32
2023-02-15T02:26:49.922Z,85.37
2023-02-15T02:30:21.480Z,85.42
2023-02-15T02:33:48.723Z,85.52
2023-02-15T02:37:04.047Z,85.68
2023-02-15T02:40:25.417Z,85.62
2023-02-15T02:44:00.804Z,85.58
2023-02-15T02:47:16.772Z,85.61
2023-02-15T02:50:27.353Z,85.52
2023-02-15T02:53:33.112Z,85.60
2023-02-15T02:56:49.559Z,85.63
2023-02-15T02:59:56.112Z,85.61
2023-02-15T03:03:07.812Z,85.70
2023-02-15T03:06:24.898Z,85.78
2023-02-15T03:09:43.228Z,85.96
2023-02-15T03:12:48.949Z,86.29
2023-02-15T03:16:26.957Z,86.43
2023-02-15T03:19:38.299Z,86.68
2023-02-15T03:22:54.925Z,85.97
2023-02-15T03:26:07.388Z,84.29
2023-02-15T03:29:12.734Z,83.20
2023-02-15T03:32:17.469Z,82.21
2023-02-15T03:35:25.971Z,82.07
2023-02-15T03:38:50.520Z,82.74
2023-02-15T03:42:15.658Z,83.34
2023-02-15T03:45:26.889Z,82.91
2023-02-15T03:48:50.369Z,84.10
2023-02-15T03:51:58.628Z,84.50
2023-02-15T03:55:05.252Z,85.03
2023-02-15T03:58:28.536Z,85.14
2023-02-15T04:01:44.579Z,85.51
2023-02-15T04:04:49.811Z,85.81
2023-02-15T04:07:54.925Z,86.04
2023-02-15T04:11:04.591Z,85.52
2023-02-15T04:14:28.839Z,84.60
2023-02-15T04:17:59.098Z,82.80
2023-02-15T04:21:38.608Z,83.15
2023-02-15T04:25:04.866Z,83.98
2023-02-15T04:28:17.720Z,84.02
2023-02-15T04:31:21.014Z,83.89
2023-02-15T04:34:24.550Z,85.00
2023-02-15T04:37:37.041Z,85.65
2023-02-15T04:40:41.412Z,85.95
2023-02-15T04:43:44.955Z,85.24
2023-02-15T04:46:52.563Z,85.80
2023-02-15T04:50:16.440Z,86.08
2023-02-15T04:53:25.054Z,86.01
2023-02-15T04:56:29.890Z,85.82
2023-02-15T04:59:55.367Z,85.59
2023-02-15T05:03:42.878Z,85.54
2023-02-15T05:07:33.816Z,85.52
2023-02-15T05:10:38.426Z,85.63
2023-02-15T05:14:06.425Z,85.46
2023-02-15T05:17:24.788Z,85.68
2023-02-15T05:21:02.246Z,85.24
2023-02-15T05:24:44.440Z,85.07
2023-02-15T05:28:06.990Z,85.78
2023-02-15T05:31:16.434Z,85.98
2023-02-15T05:34:19.649Z,85.16
2023-02-15T05:37:22.716Z,85.65
2023-02-15T05:40:26.216Z,85.99
2023-02-15T05:43:29.893Z,86.40
2023-02-15T05:46:39.837Z,86.43
2023-02-15T05:50:00.187Z,87.45
2023-02-15T05:53:12.888Z,88.27
2023-02-15T05:56:20.630Z,88.07
2023-02-15T05:59:52.154Z,88.14
2023-02-15T06:03:34.740Z,85.58
2023-02-15T06:06:43.219Z,85.10
2023-02-15T06:09:47.802Z,84.68
2023-02-15T06:12:53.370Z,84.87
2023-02-15T06:15:57.987Z,84.84
2023-02-15T06:19:02.531Z,84.89
2023-02-15T06:22:11.979Z,84.86
2023-02-15T06:25:16.464Z,84.31
2023-02-15T06:28:22.802Z,84.58
2023-02-15T06:31:54.133Z,85.64
2023-02-15T06:35:11.427Z,82.95
2023-02-15T06:38:35.127Z,81.85
2023-02-15T06:41:39.265Z,81.88
2023-02-15T06:45:04.503Z,83.88
2023-02-15T06:48:28.033Z,80.80
2023-02-15T06:51:35.359Z,77.29
2023-02-15T06:54:40.588Z,76.55
2023-02-15T06:57:49.911Z,75.10
2023-02-15T07:01:04.169Z,75.10
2023-02-15T07:04:09.695Z,75.56
2023-02-15T07:07:15.223Z,75.84
2023-02-15T07:10:19.072Z,76.42
2023-02-15T07:13:25.293Z,76.12
2023-02-15T07:16:29.186Z,75.21
2023-02-15T07:19:54.594Z,74.26
2023-02-15T07:23:00.604Z,75.08
2023-02-15T07:26:07.262Z,75.31
2023-02-15T07:29:21.123Z,74.78
2023-02-15T07:32:30.480Z,74.29
2023-02-15T07:36:09.305Z,74.38
2023-02-15T07:39:17.092Z,74.29
2023-02-15T07:42:23.234Z,74.43
2023-02-15T07:45:34.224Z,73.83
2023-02-15T07:49:00.265Z,75.30
2023-02-15T07:52:05.297Z,75.57
2023-02-15T07:55:14.065Z,75.29
2023-02-15T07:58:22.466Z,74.10
2023-02-15T08:01:34.815Z,75.45
2023-02-15T08:04:38.187Z,74.78
2023-02-15T08:08:01.778Z,77.05
2023-02-15T08:11:25.981Z,77.06
2023-02-15T08:14:31.637Z,76.50
2023-02-15T08:17:58.329Z,75.93
2023-02-15T08:21:08.108Z,75.63
2023-02-15T08:24:13.185Z,75.60
2023-02-15T08:27:34.347Z,76.14
2023-02-15T08:30:42.860Z,77.02
2023-02-15T08:33:49.694Z,75.51
2023-02-15T08:36:53.471Z,75.03
2023-02-15T08:39:58.573Z,76.55
2023-02-15T08:43:03.523Z,75.50
2023-02-15T08:46:15.728Z,77.19
2023-02-15T08:49:21.330Z,77.29
2023-02-15T08:52:26.104Z,75.13
2023-02-15T08:55:30.164Z,77.19
2023-02-15T08:58:33.832Z,77.43
2023-02-15T09:01:38.901Z,77.63
2023-02-15T09:04:48.911Z,74.50
2023-02-15T09:08:09.287Z,76.24
2023-02-15T09:12:09.580Z,75.71
2023-02-15T09:16:12.414Z,74.32
2023-02-15T09:19:56.198Z,73.62
2023-02-15T09:23:30.148Z,73.58
2023-02-15T09:27:13.373Z,73.57
2023-02-15T09:30:57.124Z,73.86
2023-02-15T09:34:36.524Z,72.53
2023-02-15T09:38:40.810Z,72.01
2023-02-15T09:42:38.807Z,71.73
2023-02-15T09:46:05.377Z,72.87
2023-02-15T09:50:42.733Z,71.71
2023-02-15T09:54:48.190Z,70.55
2023-02-15T09:59:37.298Z,69.83
2023-02-15T10:03:52.573Z,69.92
2023-02-15T10:07:42.022Z,72.71
2023-02-15T10:11:49.743Z,71.09
2023-02-15T10:15:36.478Z,70.62
2023-02-15T10:19:45.343Z,70.12
2023-02-15T10:23:55.268Z,71.97
2023-02-15T10:27:25.447Z,70.94
2023-02-15T10:31:05.338Z,72.28
2023-02-15T10:35:24.600Z,70.82
2023-02-15T10:39:20.091Z,71.99
2023-02-15T10:43:15.402Z,70.43
2023-02-15T10:46:49.624Z,71.89
2023-02-15T10:50:46.123Z,71.26
2023-02-15T10:55:19.390Z,70.55
2023-02-15T10:59:28.357Z,68.51
2023-02-15T11:03:42.034Z,70.39
2023-02-15T11:08:12.827Z,69.52
2023-02-15T11:16:05.399Z,68.85
2023-02-15T11:20:16.295Z,68.59
2023-02-15T11:24:37.755Z,66.51
2023-02-15T11:28:12.874Z,67.12
2023-02-15T11:33:07.120Z,67.85
2023-02-15T11:37:21.871Z,67.24
2023-02-15T11:41:18.879Z,65.59
2023-02-15T11:45:11.800Z,69.22
2023-02-15T11:52:00.521Z,66.99
2023-02-15T11:56:28.879Z,66.01
2023-02-15T12:00:34.483Z,65.32
2023-02-15T12:04:58.597Z,64.69
2023-02-15T12:08:45.502Z,62.92
2023-02-15T12:12:52.447Z,64.27
2023-02-15T12:16:58.589Z,63.88
2023-02-15T12:21:04.577Z,61.68
2023-02-15T12:25:46.578Z,62.58
2023-02-15T12:29:33.577Z,61.33
2023-02-15T12:33:12.833Z,63.20
2023-02-15T12:36:58.542Z,63.05
2023-02-15T12:41:42.288Z,61.72
2023-02-15T12:45:36.908Z,63.08
2023-02-15T12:49:04.497Z,62.96
2023-02-15T12:52:59.825Z,63.69
2023-02-15T12:57:07.067Z,64.01
2023-02-15T13:01:18.562Z,64.33
2023-02-15T13:05:27.596Z,63.10
2023-02-15T13:09:34.368Z,62.96
2023-02-15T13:13:40.412Z,61.38
2023-02-15T13:17:10.485Z,61.44
2023-02-15T13:21:42.881Z,62.48
2023-02-15T13:25:49.649Z,61.04
2023-02-15T13:29:36.165Z,62.78
2023-02-15T13:33:07.406Z,64.74
2023-02-15T13:37:07.645Z,59.63
2023-02-15T13:40:45.386Z,55.69
2023-02-15T13:43:56.377Z,57.27
2023-02-15T13:47:48.417Z,58.50
2023-02-15T13:52:32.813Z,62.08
2023-02-15T13:56:39.575Z,62.84
2023-02-15T14:00:27.362Z,60.05
2023-02-15T14:04:50.173Z,57.59
2023-02-15T14:09:42.676Z,59.87
2023-02-15T14:13:29.373Z,61.47
2023-02-15T14:18:10.722Z,62.20
2023-02-15T14:21:49.342Z,64.18
2023-02-15T14:26:13.031Z,57.57
2023-02-15T14:29:27.485Z,55.32
2023-02-15T14:33:06.354Z,56.85
2023-02-15T14:36:15.737Z,59.36
2023-02-15T14:40:30.025Z,59.98
2023-02-15T14:43:51.916Z,60.85
2023-02-15T14:47:29.996Z,61.89
2023-02-15T14:50:52.932Z,63.45
2023-02-15T14:54:23.182Z,64.99
2023-02-15T14:57:27.663Z,61.24
2023-02-15T15:00:37.915Z,57.83
2023-02-15T15:03:54.330Z,58.10
2023-02-15T15:07:10.402Z,60.58
2023-02-15T15:10:21.224Z,62.72
2023-02-15T15:13:33.448Z,63.62
2023-02-15T15:16:48.647Z,62.95
2023-02-15T15:19:52.840Z,61.39
2023-02-15T15:23:17.687Z,61.24
2023-02-15T15:26:30.105Z,60.79
2023-02-15T15:29:42.784Z,60.36
2023-02-15T15:32:56.022Z,60.15
2023-02-15T15:36:29.044Z,60.19
2023-02-15T15:40:18.448Z,59.24
2023-02-15T15:43:34.792Z,58.92
2023-02-15T15:47:07.431Z,61.00
2023-02-15T15:50:18.864Z,64.74
2023-02-15T15:53:25.624Z,66.38
2023-02-15T15:56:33.319Z,64.46
2023-02-15T15:59:36.622Z,64.22
2023-02-15T16:02:53.494Z,62.72
2023-02-15T16:06:01.498Z,61.90
2023-02-15T16:09:22.313Z,62.03
2023-02-15T16:12:54.026Z,61.40
2023-02-15T16:15:58.355Z,60.91
2023-02-15T16:19:01.434Z,60.90
2023-02-15T16:22:07.448Z,61.05
2023-02-15T16:25:36.959Z,59.27
2023-02-15T16:28:40.395Z,58.70
2023-02-15T16:31:43.669Z,61.98
2023-02-15T16:34:59.270Z,65.00
2023-02-15T16:38:03.502Z,61.18
2023-02-15T16:41:06.528Z,58.06
2023-02-15T16:44:20.860Z,60.68
2023-02-15T16:47:29.768Z,64.22
2023-02-15T16:50:38.635Z,62.36
2023-02-15T16:53:41.754Z,58.04
2023-02-15T16:56:47.379Z,59.34
2023-02-15T16:59:52.115Z,63.88
2023-02-15T17:03:01.202Z,65.09
2023-02-15T17:06:04.794Z,60.47
2023-02-15T17:09:19.463Z,56.56
2023-02-15T17:12:45.412Z,59.12
2023-02-15T17:16:00.920Z,66.09
2023-02-15T17:19:14.519Z,64.35
2023-02-15T17:22:28.214Z,59.49
2023-02-15T17:25:40.545Z,56.36
2023-02-15T17:28:47.765Z,59.28
2023-02-15T17:31:53.540Z,61.80
2023-02-15T17:35:20.191Z,67.89
2023-02-15T17:38:23.276Z,65.26
2023-02-15T17:41:26.999Z,61.42
2023-02-15T17:44:30.088Z,56.09
2023-02-15T17:47:33.276Z,57.64
2023-02-15T17:50:36.877Z,60.54
2023-02-15T17:53:39.956Z,67.68
2023-02-15T17:56:43.116Z,62.76
2023-02-15T18:00:04.590Z,63.49
2023-02-15T18:03:31.186Z,59.80
2023-02-15T18:06:54.335Z,58.97
2023-02-15T18:10:16.180Z,62.45
2023-02-15T18:13:19.551Z,66.47
2023-02-15T18:16:29.496Z,67.79
2023-02-15T18:19:33.434Z,67.17
2023-02-15T18:22:36.772Z,70.93
2023-02-15T18:25:40.447Z,71.70
2023-02-15T18:28:43.441Z,73.44
2023-02-15T18:31:51.680Z,74.87
2023-02-15T18:34:58.131Z,76.97
2023-02-15T18:38:02.347Z,67.54
2023-02-15T18:41:06.267Z,65.11
2023-02-15T18:44:12.359Z,61.76
2023-02-15T18:47:15.779Z,61.35
2023-02-15T18:50:20.803Z,62.35
2023-02-15T18:53:23.999Z,63.33
2023-02-15T18:56:27.584Z,63.20
2023-02-15T18:59:31.718Z,66.21
2023-02-15T19:02:34.867Z,66.01
2023-02-15T19:05:38.122Z,66.45
2023-02-15T19:08:41.392Z,68.41
2023-02-15T19:11:53.065Z,69.99
2023-02-15T19:14:57.032Z,70.30
2023-02-15T19:18:00.160Z,71.43
2023-02-15T19:21:03.193Z,72.23
2023-02-15T19:24:14.394Z,72.20
2023-02-15T19:27:25.827Z,71.31
2023-02-15T19:30:31.820Z,71.88
2023-02-15T19:33:41.362Z,71.49
2023-02-15T19:36:47.082Z,71.81
2023-02-15T19:39:50.383Z,72.56
2023-02-15T19:42:53.981Z,73.35
2023-02-15T19:45:57.164Z,74.07
2023-02-15T19:49:00.578Z,74.40
2023-02-15T19:52:03.924Z,75.23
2023-02-15T19:55:12.960Z,75.58
2023-02-15T19:58:21.190Z,75.90
2023-02-15T20:01:41.246Z,75.66
2023-02-15T20:04:45.248Z,74.97
2023-02-15T20:07:50.834Z,73.75
2023-02-15T20:11:15.717Z,73.67
2023-02-15T20:14:21.563Z,73.91
2023-02-15T20:17:24.510Z,73.48
2023-02-15T20:20:52.074Z,74.37
2023-02-15T20:23:55.253Z,75.68
2023-02-15T20:27:00.393Z,74.16
2023-02-15T20:30:04.760Z,73.77
2023-02-15T20:33:07.917Z,76.31
2023-02-15T20:36:20.200Z,76.63
2023-02-15T20:39:24.265Z,75.84
2023-02-15T20:42:27.419Z,75.35
2023-02-15T20:45:33.290Z,76.77
2023-02-15T20:48:36.762Z,78.22
2023-02-15T20:51:42.011Z,77.01
2023-02-15T20:54:47.403Z,75.33
2023-02-15T20:57:50.919Z,75.25
2023-02-15T21:00:56.303Z,75.24
2023-02-15T21:03:59.598Z,75.00
2023-02-15T21:07:02.830Z,73.76
2023-02-15T21:10:07.282Z,70.67
2023-02-15T21:13:25.877Z,69.37
2023-02-15T21:16:28.954Z,69.11
2023-02-15T21:19:32.495Z,69.57
2023-02-15T21:22:35.850Z,69.38
2023-02-15T21:25:39.187Z,69.26
2023-02-15T21:28:42.250Z,69.77
2023-02-15T21:31:46.281Z,69.54
2023-02-15T21:34:49.403Z,70.36
2023-02-15T21:37:53.398Z,69.56
2023-02-15T21:41:16.414Z,70.16
2023-02-15T21:44:40.142Z,70.85
2023-02-15T21:47:52.417Z,70.79
2023-02-15T21:51:14.380Z,70.69
2023-02-15T21:54:19.737Z,70.27
2023-02-15T21:57:22.909Z,69.53
2023-02-15T22:00:30.248Z,68.55
2023-02-15T22:03:37.701Z,68.72
2023-02-15T22:06:41.735Z,68.54
2023-02-15T22:09:44.783Z,68.36
2023-02-15T22:12:48.082Z,68.77
2023-02-15T22:15:51.177Z,68.63
2023-02-15T22:18:54.153Z,68.67
2023-02-15T22:22:01.466Z,68.56
2023-02-15T22:25:04.889Z,68.46
2023-02-15T22:28:16.648Z,68.60
2023-02-15T22:31:22.901Z,68.02
2023-02-15T22:34:29.469Z,66.86
2023-02-15T22:37:35.732Z,66.71
2023-02-15T22:40:40.228Z,66.40
2023-02-15T22:43:45.621Z,66.42
2023-02-15T22:46:48.629Z,66.82
2023-02-15T22:49:51.998Z,67.12
2023-02-15T22:52:55.585Z,68.28
2023-02-15T22:56:02.143Z,69.82
2023-02-15T22:59:08.819Z,70.26
2023-02-15T23:02:14.804Z,70.24
2023-02-15T23:05:29.269Z,70.82
2023-02-15T23:08:32.297Z,71.12
2023-02-15T23:11:35.318Z,70.96
2023-02-15T23:14:38.499Z,71.61
2023-02-15T23:17:41.659Z,72.67
2023-02-15T23:20:54.640Z,72.62
2023-02-15T23:24:13.959Z,72.52
2023-02-15T23:27:37.130Z,73.58
2023-02-15T23:30:40.156Z,74.44
2023-02-15T23:33:43.480Z,74.45
2023-02-15T23:36:47.011Z,76.54
2023-02-15T23:40:08.368Z,75.80
2023-02-15T23:43:20.496Z,76.30
2023-02-15T23:46:30.292Z,76.49
2023-02-15T23:49:33.404Z,76.95
2023-02-15T23:52:36.488Z,76.14
2023-02-15T23:55:43.715Z,78.73
2023-02-15T23:58:47.503Z,78.79
